Time;durP1;ratioP1;P1;durP2;ratioP2;P2;SDS_P1;SDS_P2;PMS_P1;PMS_P2;Temp;Humidity;BMP_temperature;BMP_pressure;BME280_temperature;BME280_humidity;BME280_pressure;Samples;Min_cycle;Max_cycle;Signal;HPM_P1;HPM_P2
2020/12/31 00:00:04;;;;;;;20.70;13.43;;;4.70;92.70;;;;;;5075092;28;20024;-78
2020/12/31 00:02:30;;;;;;;22.60;13.45;;;4.70;92.70;;;;;;5092984;28;20030;-78
2020/12/31 00:04:55;;;;;;;20.95;13.93;;;4.70;92.70;;;;;;5054516;28;20124;-78
2020/12/31 00:07:21;;;;;;;20.08;14.25;;;4.70;92.70;;;;;;5086264;28;20115;-78
2020/12/31 00:09:47;;;;;;;22.02;13.98;;;4.60;93.00;;;;;;5054607;28;20036;-78
2020/12/31 00:12:13;;;;;;;19.73;13.40;;;4.60;92.70;;;;;;5103940;28;20029;-78
2020/12/31 00:14:39;;;;;;;23.08;13.85;;;4.60;93.00;;;;;;5074649;28;20040;-78
2020/12/31 00:17:04;;;;;;;19.45;13.88;;;4.70;92.80;;;;;;5057455;28;20051;-78
2020/12/31 00:19:30;;;;;;;20.33;13.60;;;4.70;93.00;;;;;;5075070;28;20086;-78
2020/12/31 00:21:55;;;;;;;22.42;15.60;;;4.70;93.00;;;;;;5074964;28;20028;-78
2020/12/31 00:24:21;;;;;;;21.92;14.32;;;4.70;92.80;;;;;;5064977;28;20032;-78
2020/12/31 00:26:47;;;;;;;23.60;15.32;;;4.70;92.80;;;;;;5093108;28;20024;-82
2020/12/31 00:29:13;;;;;;;22.73;16.38;;;4.70;92.80;;;;;;5074364;28;20039;-83
2020/12/31 00:31:38;;;;;;;22.85;15.00;;;4.70;92.80;;;;;;5057781;28;20038;-83
2020/12/31 00:34:05;;;;;;;21.00;14.82;;;4.70;92.80;;;;;;5074411;28;20042;-78
2020/12/31 00:36:30;;;;;;;18.83;13.68;;;4.60;92.80;;;;;;5074899;28;20024;-78
2020/12/31 00:38:56;;;;;;;20.25;14.05;;;4.70;92.80;;;;;;5074742;28;20029;-78
2020/12/31 00:41:22;;;;;;;22.52;14.73;;;4.70;92.80;;;;;;5041568;28;20028;-78
2020/12/31 00:43:49;;;;;;;22.40;14.73;;;4.70;92.80;;;;;;5074848;28;20032;-78
2020/12/31 00:46:14;;;;;;;18.77;13.07;;;4.70;92.80;;;;;;5074659;28;20444;-78
2020/12/31 00:48:41;;;;;;;17.25;13.43;;;4.70;92.80;;;;;;5092772;28;20048;-78
2020/12/31 00:51:07;;;;;;;18.90;13.45;;;4.60;92.80;;;;;;5074577;28;20491;-78
2020/12/31 00:53:33;;;;;;;22.05;14.73;;;4.60;92.80;;;;;;5054474;28;20029;-78
2020/12/31 00:55:59;;;;;;;21.08;14.38;;;4.60;92.80;;;;;;5072555;28;20074;-78
2020/12/31 00:58:24;;;;;;;19.67;14.38;;;4.60;92.80;;;;;;5065779;28;20024;-78
2020/12/31 01:00:50;;;;;;;19.27;13.65;;;4.60;92.80;;;;;;5057837;28;20040;-78
2020/12/31 01:03:16;;;;;;;18.75;13.30;;;4.70;92.80;;;;;;5096578;28;20070;-78
2020/12/31 01:05:42;;;;;;;19.02;13.73;;;4.60;92.80;;;;;;5077384;28;20028;-83
2020/12/31 01:08:07;;;;;;;19.80;13.13;;;4.70;92.80;;;;;;5078231;28;20024;-84
2020/12/31 01:10:33;;;;;;;18.98;13.88;;;4.60;92.80;;;;;;5061951;28;20065;-83
2020/12/31 01:12:58;;;;;;;19.60;13.15;;;4.70;92.80;;;;;;5078220;28;20032;-83
2020/12/31 01:15:24;;;;;;;21.75;13.38;;;4.70;92.90;;;;;;5061617;28;20499;-83
2020/12/31 01:17:50;;;;;;;19.40;14.65;;;4.60;92.80;;;;;;5078249;28;20365;-84
2020/12/31 01:20:16;;;;;;;21.08;14.45;;;4.70;92.80;;;;;;5078211;28;20035;-84
2020/12/31 01:22:41;;;;;;;20.02;14.50;;;4.60;92.90;;;;;;5077971;28;20038;-83
2020/12/31 01:25:07;;;;;;;17.83;14.15;;;4.60;92.90;;;;;;5096323;28;20071;-84
2020/12/31 01:27:33;;;;;;;20.13;14.07;;;4.60;92.90;;;;;;5096139;28;20020;-83
2020/12/31 01:29:58;;;;;;;28.05;17.98;;;4.60;92.90;;;;;;5078233;28;20024;-84
2020/12/31 01:32:25;;;;;;;24.38;16.65;;;4.60;93.20;;;;;;5077857;28;20048;-84
2020/12/31 01:34:53;;;;;;;23.13;15.75;;;4.60;93.00;;;;;;5057747;28;20032;-84
2020/12/31 01:37:22;;;;;;;28.40;17.90;;;4.60;93.00;;;;;;5056656;28;20040;-84
2020/12/31 01:39:49;;;;;;;17.73;12.88;;;4.50;93.10;;;;;;5078029;28;20031;-83
2020/12/31 01:42:15;;;;;;;15.98;10.60;;;4.50;93.00;;;;;;5057051;28;20068;-83
2020/12/31 01:44:40;;;;;;;12.90;9.23;;;4.40;93.00;;;;;;5075169;28;20020;-83
2020/12/31 01:47:06;;;;;;;10.68;8.00;;;4.40;92.90;;;;;;5083293;28;20063;-83
2020/12/31 01:49:37;;;;;;;10.63;8.20;;;4.30;92.90;;;;;;5060604;28;20111;-84
2020/12/31 01:52:02;;;;;;;10.50;7.53;;;4.30;92.90;;;;;;5077129;28;20056;-84
2020/12/31 01:54:29;;;;;;;11.00;7.22;;;4.30;92.90;;;;;;5077278;28;20075;-84
2020/12/31 01:56:56;;;;;;;8.60;6.78;;;4.20;92.90;;;;;;5060550;28;20443;-84
2020/12/31 01:59:23;;;;;;;6.82;5.45;;;4.20;92.90;;;;;;5077196;28;20047;-83
2020/12/31 02:01:49;;;;;;;6.50;4.78;;;4.20;92.90;;;;;;5077057;28;20081;-83
2020/12/31 02:04:15;;;;;;;5.60;4.25;;;4.20;92.90;;;;;;5077252;28;20030;-83
2020/12/31 02:06:42;;;;;;;4.07;3.67;;;4.20;92.90;;;;;;5077119;28;20024;-84
2020/12/31 02:09:08;;;;;;;4.47;3.75;;;4.20;92.90;;;;;;5077164;28;20388;-83
2020/12/31 02:11:33;;;;;;;4.47;2.90;;;4.20;92.90;;;;;;5076065;28;20028;-83
2020/12/31 02:13:59;;;;;;;3.65;3.30;;;4.20;92.90;;;;;;5077125;28;20492;-84
2020/12/31 02:16:27;;;;;;;3.63;2.70;;;4.20;92.80;;;;;;5076861;28;20031;-84
2020/12/31 02:19:05;;;;;;;3.83;2.83;;;4.20;92.70;;;;;;5060259;28;20035;-83
2020/12/31 02:21:33;;;;;;;3.10;2.13;;;4.20;92.70;;;;;;5076514;28;20027;-83
2020/12/31 02:24:00;;;;;;;4.07;2.40;;;4.20;92.70;;;;;;5077082;28;20059;-83
2020/12/31 02:26:28;;;;;;;4.15;2.92;;;4.20;92.70;;;;;;5076453;28;20039;-83
2020/12/31 02:28:55;;;;;;;3.55;2.08;;;4.20;92.60;;;;;;5059909;28;20048;-83
2020/12/31 02:31:22;;;;;;;3.58;1.90;;;4.20;92.90;;;;;;5056353;28;20056;-83
2020/12/31 02:33:49;;;;;;;1.92;1.73;;;4.20;92.60;;;;;;5093023;28;20020;-83
2020/12/31 02:36:15;;;;;;;1.77;1.52;;;4.10;92.60;;;;;;5060104;28;20032;-83
2020/12/31 02:38:42;;;;;;;3.30;1.60;;;4.10;92.60;;;;;;5056163;28;20123;-83
2020/12/31 02:41:08;;;;;;;2.67;1.75;;;4.10;92.60;;;;;;5078818;28;20036;-83
2020/12/31 02:43:34;;;;;;;4.95;2.33;;;4.10;92.60;;;;;;5076417;28;20024;-83
2020/12/31 02:46:00;;;;;;;4.82;2.05;;;4.10;92.60;;;;;;5094359;28;20052;-83
2020/12/31 02:48:26;;;;;;;2.42;1.70;;;4.10;92.50;;;;;;5076283;28;20074;-83
2020/12/31 02:50:52;;;;;;;6.47;1.58;;;4.10;92.50;;;;;;5042878;28;20028;-83
2020/12/31 02:53:17;;;;;;;3.88;1.60;;;4.10;92.50;;;;;;5076089;28;20028;-79
2020/12/31 02:55:43;;;;;;;1.92;1.48;;;4.10;92.50;;;;;;5075768;28;20357;-79
2020/12/31 02:58:09;;;;;;;3.45;1.95;;;4.10;92.50;;;;;;5093806;28;20027;-79
2020/12/31 03:00:35;;;;;;;3.95;2.10;;;4.10;92.50;;;;;;5075759;28;20032;-79
2020/12/31 03:03:00;;;;;;;8.75;2.28;;;4.20;92.50;;;;;;5075841;28;20031;-79
2020/12/31 03:05:26;;;;;;;4.45;2.20;;;4.10;92.40;;;;;;5075485;28;20043;-79
2020/12/31 03:07:51;;;;;;;3.50;1.83;;;4.10;92.40;;;;;;5094577;28;20040;-83
2020/12/31 03:10:17;;;;;;;2.15;1.58;;;4.10;92.40;;;;;;5076222;28;20027;-83
2020/12/31 03:12:43;;;;;;;1.60;1.13;;;4.10;92.40;;;;;;5076445;28;20077;-82
2020/12/31 03:15:10;;;;;;;2.35;1.20;;;4.10;92.40;;;;;;5057897;28;20090;-83
2020/12/31 03:17:37;;;;;;;2.97;1.20;;;4.10;92.40;;;;;;5075741;28;20024;-82
2020/12/31 03:20:04;;;;;;;2.20;0.80;;;4.10;92.40;;;;;;5093720;28;20036;-83
2020/12/31 03:22:30;;;;;;;2.47;1.10;;;4.10;92.40;;;;;;5042273;28;20054;-83
2020/12/31 03:24:55;;;;;;;0.80;0.80;;;4.10;92.30;;;;;;5055753;28;20036;-82
2020/12/31 03:27:21;;;;;;;1.48;1.00;;;4.00;92.60;;;;;;5072197;28;20025;-83
2020/12/31 03:29:46;;;;;;;3.38;1.02;;;4.10;92.30;;;;;;5085456;28;20120;-83
2020/12/31 03:32:12;;;;;;;5.13;0.80;;;4.00;92.30;;;;;;5058808;28;20127;-83
2020/12/31 03:34:38;;;;;;;1.65;0.60;;;4.00;92.30;;;;;;5076379;28;20028;-83
2020/12/31 03:37:03;;;;;;;1.42;0.60;;;4.00;92.30;;;;;;5095760;28;20035;-83
2020/12/31 03:39:29;;;;;;;1.95;0.80;;;4.10;92.40;;;;;;5079228;28;20387;-84
2020/12/31 03:41:54;;;;;;;0.68;0.60;;;4.00;92.30;;;;;;5059969;28;20107;-84
2020/12/31 03:44:20;;;;;;;2.83;1.17;;;4.10;92.40;;;;;;5058844;28;20028;-83
2020/12/31 03:46:45;;;;;;;1.75;0.63;;;4.00;92.30;;;;;;5059123;28;20169;-84
2020/12/31 03:49:11;;;;;;;2.20;0.90;;;4.00;92.30;;;;;;5059114;28;20031;-83
2020/12/31 03:51:36;;;;;;;1.35;0.80;;;4.00;92.40;;;;;;5058878;28;20422;-84
2020/12/31 03:54:02;;;;;;;1.30;0.70;;;4.10;92.40;;;;;;5058958;28;20065;-83
2020/12/31 03:56:28;;;;;;;1.35;0.90;;;4.00;92.30;;;;;;5075510;28;20020;-83
2020/12/31 03:58:53;;;;;;;1.95;1.10;;;4.10;92.30;;;;;;5075546;28;20038;-82
2020/12/31 04:01:19;;;;;;;2.13;0.85;;;4.00;92.30;;;;;;5075202;28;20438;-83
2020/12/31 04:03:44;;;;;;;1.30;0.70;;;4.00;92.30;;;;;;5093769;28;20032;-83
2020/12/31 04:06:12;;;;;;;0.98;0.70;;;4.10;92.20;;;;;;5058460;28;20538;-83
2020/12/31 04:08:38;;;;;;;0.63;0.63;;;4.10;92.20;;;;;;5059402;28;20679;-84
2020/12/31 04:11:04;;;;;;;1.88;0.70;;;4.00;92.10;;;;;;5042242;28;20055;-83
2020/12/31 04:13:29;;;;;;;0.70;0.70;;;4.00;92.10;;;;;;5075367;28;20066;-83
2020/12/31 04:15:55;;;;;;;1.13;0.80;;;4.00;92.20;;;;;;5058552;28;20050;-83
2020/12/31 04:18:20;;;;;;;2.47;0.80;;;4.00;92.20;;;;;;5058570;28;20066;-83
2020/12/31 04:20:46;;;;;;;1.70;0.95;;;4.00;92.20;;;;;;5058686;28;20055;-84
2020/12/31 04:23:11;;;;;;;2.10;0.80;;;4.00;92.30;;;;;;5058810;28;20032;-84
2020/12/31 04:25:37;;;;;;;1.88;0.90;;;4.00;92.30;;;;;;5058466;28;20085;-83
2020/12/31 04:28:03;;;;;;;1.45;1.10;;;4.00;92.30;;;;;;5074955;28;20031;-83
2020/12/31 04:30:28;;;;;;;3.72;1.05;;;4.00;92.30;;;;;;5075177;28;20103;-84
2020/12/31 04:32:54;;;;;;;1.88;1.17;;;4.00;92.30;;;;;;5074601;28;20024;-83
2020/12/31 04:35:19;;;;;;;2.53;1.20;;;4.00;92.30;;;;;;5061124;28;20111;-83
2020/12/31 04:37:45;;;;;;;1.15;0.90;;;4.00;92.30;;;;;;5061941;28;20384;-84
2020/12/31 04:40:10;;;;;;;1.63;0.80;;;3.90;92.30;;;;;;5079143;28;20028;-83
2020/12/31 04:42:36;;;;;;;1.45;0.90;;;3.90;92.30;;;;;;5062030;28;20047;-83
2020/12/31 04:45:04;;;;;;;1.23;1.08;;;4.00;92.30;;;;;;5078212;28;20039;-82
2020/12/31 04:47:40;;;;;;;3.55;1.15;;;3.90;92.30;;;;;;5058897;28;20115;-83
2020/12/31 04:50:09;;;;;;;2.22;0.90;;;3.90;92.60;;;;;;5076889;28;20016;-83
2020/12/31 04:52:35;;;;;;;1.20;1.02;;;3.90;92.30;;;;;;5078202;28;20464;-79
2020/12/31 04:55:02;;;;;;;2.92;0.90;;;3.90;92.30;;;;;;5078430;28;20032;-83
2020/12/31 04:57:27;;;;;;;1.38;0.80;;;3.90;92.30;;;;;;5062143;28;20123;-83
2020/12/31 04:59:53;;;;;;;2.42;1.05;;;3.90;92.20;;;;;;5096621;28;20063;-82
2020/12/31 05:02:19;;;;;;;2.45;0.90;;;3.90;92.20;;;;;;5062323;28;20039;-84
2020/12/31 05:04:46;;;;;;;2.78;0.98;;;3.90;92.20;;;;;;5078249;28;20123;-82
2020/12/31 05:07:13;;;;;;;1.52;0.80;;;3.90;92.20;;;;;;5078330;28;20020;-83
2020/12/31 05:09:38;;;;;;;1.10;0.70;;;3.90;92.10;;;;;;5058594;28;20036;-83
2020/12/31 05:12:04;;;;;;;1.60;0.90;;;3.90;92.10;;;;;;5095471;28;20102;-83
2020/12/31 05:14:35;;;;;;;1.17;0.70;;;3.90;92.10;;;;;;5078128;28;20118;-84
2020/12/31 05:17:17;;;;;;;2.55;0.90;;;3.90;92.10;;;;;;5078681;28;20046;-83
2020/12/31 05:19:44;;;;;;;1.55;0.80;;;3.90;92.10;;;;;;5061900;28;20097;-84
2020/12/31 05:22:20;;;;;;;2.78;0.60;;;3.90;92.10;;;;;;5061758;28;20115;-84
2020/12/31 05:24:50;;;;;;;2.58;0.90;;;3.90;92.10;;;;;;5060764;28;20028;-84
2020/12/31 05:27:16;;;;;;;1.73;0.90;;;3.80;92.00;;;;;;5078247;28;20024;-84
2020/12/31 05:30:06;;;;;;;1.80;0.90;;;3.80;92.00;;;;;;5077909;28;20016;-83
2020/12/31 05:32:40;;;;;;;1.33;0.80;;;3.80;92.10;;;;;;5075370;28;20085;-83
2020/12/31 05:35:14;;;;;;;2.17;0.90;;;3.80;92.00;;;;;;5077694;28;20437;-84
2020/12/31 05:37:40;;;;;;;1.27;0.98;;;3.70;92.00;;;;;;5096173;28;20024;-83
2020/12/31 05:40:11;;;;;;;3.50;1.10;;;3.80;92.00;;;;;;5061062;28;20101;-84
2020/12/31 05:42:38;;;;;;;2.63;1.00;;;3.80;92.00;;;;;;5077367;28;20087;-84
2020/12/31 05:45:26;;;;;;;1.85;1.15;;;3.70;92.00;;;;;;5076442;28;20458;-84
2020/12/31 05:47:53;;;;;;;3.15;1.02;;;3.70;92.10;;;;;;5095316;28;20028;-84
2020/12/31 05:50:30;;;;;;;4.45;1.52;;;3.70;92.10;;;;;;5077612;28;20031;-84
2020/12/31 05:52:55;;;;;;;2.17;1.40;;;3.70;92.10;;;;;;5077330;28;20107;-84
2020/12/31 05:55:23;;;;;;;1.80;1.23;;;3.70;92.10;;;;;;5060301;28;20059;-83
2020/12/31 05:57:54;;;;;;;2.05;1.45;;;3.70;92.10;;;;;;5095609;28;20026;-83
2020/12/31 06:00:22;;;;;;;1.90;1.38;;;3.70;92.20;;;;;;5091242;28;20028;-83
2020/12/31 06:03:13;;;;;;;2.55;1.50;;;3.70;92.10;;;;;;5057225;28;20060;-84
2020/12/31 06:06:02;;;;;;;1.58;1.48;;;3.70;92.20;;;;;;5090927;28;20587;-83
2020/12/31 06:08:30;;;;;;;2.58;1.95;;;3.70;92.50;;;;;;5094933;28;20471;-78
2020/12/31 06:11:01;;;;;;;3.30;1.85;;;3.70;92.20;;;;;;5077147;28;20464;-78
2020/12/31 06:13:36;;;;;;;2.80;1.80;;;3.70;92.20;;;;;;5076754;28;20020;-78
2020/12/31 06:16:03;;;;;;;3.42;1.95;;;3.70;92.20;;;;;;5094931;28;20028;-78
2020/12/31 06:18:37;;;;;;;2.30;2.00;;;3.70;92.20;;;;;;5043772;28;20535;-78
2020/12/31 06:21:03;;;;;;;3.38;2.50;;;3.70;92.20;;;;;;5076897;28;20059;-78
2020/12/31 06:23:36;;;;;;;2.78;2.33;;;3.70;92.40;;;;;;5059913;28;20476;-78
2020/12/31 06:26:12;;;;;;;3.30;2.38;;;3.70;92.10;;;;;;5076603;28;20055;-78
2020/12/31 06:28:44;;;;;;;3.28;2.78;;;3.70;92.20;;;;;;5094909;28;20024;-78
2020/12/31 06:31:10;;;;;;;3.38;2.88;;;3.70;92.20;;;;;;5094637;28;20372;-78
2020/12/31 06:33:45;;;;;;;3.80;2.90;;;3.70;92.20;;;;;;5076247;28;20099;-78
2020/12/31 06:36:12;;;;;;;4.65;2.70;;;3.70;92.20;;;;;;5076301;28;20067;-78
2020/12/31 06:38:47;;;;;;;7.55;3.08;;;3.60;92.20;;;;;;5061134;28;20025;-77
2020/12/31 06:41:31;;;;;;;2.50;2.25;;;3.70;92.20;;;;;;5080605;28;20517;-78
2020/12/31 06:44:14;;;;;;;4.63;2.80;;;3.70;92.20;;;;;;5096672;28;20027;-77
2020/12/31 06:46:47;;;;;;;2.83;2.53;;;3.70;92.30;;;;;;5114748;28;20094;-78
2020/12/31 06:49:14;;;;;;;3.60;2.95;;;3.70;92.30;;;;;;5115014;28;20023;-78
2020/12/31 06:51:40;;;;;;;3.65;3.03;;;3.70;92.20;;;;;;5096789;28;20032;-78
2020/12/31 06:54:05;;;;;;;3.75;2.47;;;3.70;92.20;;;;;;5068699;28;20138;-78
2020/12/31 06:56:47;;;;;;;3.00;2.70;;;3.70;92.20;;;;;;5094106;28;20028;-78
2020/12/31 06:59:35;;;;;;;3.17;2.85;;;3.70;92.30;;;;;;5076229;28;20024;-78
2020/12/31 07:02:22;;;;;;;2.97;2.67;;;3.70;92.30;;;;;;5087323;28;20370;-78
2020/12/31 07:04:48;;;;;;;2.90;2.63;;;3.70;92.30;;;;;;5076340;28;20109;-78
2020/12/31 07:07:19;;;;;;;3.42;3.13;;;3.70;92.20;;;;;;5094182;28;20051;-78
2020/12/31 07:09:55;;;;;;;3.88;3.28;;;3.70;92.20;;;;;;5075805;28;20039;-78
2020/12/31 07:12:31;;;;;;;3.40;3.10;;;3.70;92.20;;;;;;5076140;28;20388;-78
2020/12/31 07:14:57;;;;;;;2.72;2.53;;;3.70;92.20;;;;;;5075419;28;20040;-78
2020/12/31 07:17:23;;;;;;;3.42;2.63;;;3.70;92.20;;;;;;5076013;28;20028;-80
2020/12/31 07:19:54;;;;;;;3.25;2.60;;;3.70;92.20;;;;;;5075987;28;20039;-79
2020/12/31 07:22:21;;;;;;;3.50;2.80;;;3.70;92.10;;;;;;5075848;28;20028;-79
2020/12/31 07:24:54;;;;;;;3.65;2.88;;;3.70;92.10;;;;;;5075550;28;20043;-79
2020/12/31 07:27:21;;;;;;;2.65;2.42;;;3.70;92.20;;;;;;5075557;28;20502;-79
2020/12/31 07:30:08;;;;;;;3.65;3.00;;;3.70;92.20;;;;;;5075533;28;20116;-79
2020/12/31 07:32:57;;;;;;;3.05;2.75;;;3.70;92.20;;;;;;5075581;28;20028;-79
2020/12/31 07:35:29;;;;;;;3.30;3.00;;;3.70;92.20;;;;;;5094158;28;20028;-79
2020/12/31 07:38:15;;;;;;;4.28;3.88;;;3.70;92.20;;;;;;5093683;28;20380;-78
2020/12/31 07:40:48;;;;;;;4.03;3.50;;;3.70;92.30;;;;;;5059128;28;20024;-78
2020/12/31 07:43:18;;;;;;;3.78;3.15;;;3.70;92.20;;;;;;5093526;28;20035;-78
2020/12/31 07:45:46;;;;;;;3.65;3.17;;;3.70;92.20;;;;;;5075623;28;20027;-78
2020/12/31 07:48:13;;;;;;;4.07;3.35;;;3.70;92.20;;;;;;5075482;28;20047;-78
2020/12/31 07:50:42;;;;;;;4.07;3.50;;;3.70;92.20;;;;;;5075088;28;20031;-78
2020/12/31 07:53:11;;;;;;;4.18;3.67;;;3.70;92.20;;;;;;5075253;28;20024;-78
2020/12/31 07:55:37;;;;;;;4.88;4.20;;;3.70;92.20;;;;;;5075049;28;20035;-78
2020/12/31 07:58:07;;;;;;;4.63;4.15;;;3.70;92.20;;;;;;5042009;28;20056;-78
2020/12/31 08:00:33;;;;;;;4.03;3.47;;;3.70;92.10;;;;;;5075183;28;20027;-78
2020/12/31 08:02:59;;;;;;;6.82;5.32;;;3.70;92.10;;;;;;5058596;28;20097;-78
2020/12/31 08:05:26;;;;;;;5.30;4.80;;;3.70;92.10;;;;;;5058549;28;20480;-78
2020/12/31 08:07:57;;;;;;;4.93;4.43;;;3.70;92.10;;;;;;5093411;28;20669;-78
2020/12/31 08:10:24;;;;;;;6.97;4.20;;;3.60;92.10;;;;;;5078379;28;20063;-78
2020/12/31 08:13:01;;;;;;;5.07;4.57;;;3.70;92.20;;;;;;5062144;28;20029;-78
2020/12/31 08:15:27;;;;;;;5.38;4.30;;;3.60;92.20;;;;;;5079471;28;20126;-78
2020/12/31 08:17:55;;;;;;;5.95;5.20;;;3.70;92.20;;;;;;5062630;28;20079;-78
2020/12/31 08:20:23;;;;;;;6.38;5.30;;;3.60;92.20;;;;;;5096839;28;20480;-78
2020/12/31 08:22:54;;;;;;;5.57;4.60;;;3.70;92.30;;;;;;5097325;28;20060;-78
2020/12/31 08:25:32;;;;;;;7.30;5.68;;;3.70;92.20;;;;;;5079026;28;20031;-78
2020/12/31 08:28:02;;;;;;;5.35;4.65;;;3.70;92.30;;;;;;5079110;28;20043;-78
2020/12/31 08:30:27;;;;;;;5.90;5.15;;;3.60;92.30;;;;;;5078645;28;20031;-78
2020/12/31 08:33:00;;;;;;;6.25;5.10;;;3.70;92.30;;;;;;5062617;28;20020;-78
2020/12/31 08:35:26;;;;;;;5.82;5.22;;;3.70;92.30;;;;;;5092230;28;20027;-78
2020/12/31 08:38:12;;;;;;;8.27;6.18;;;3.70;92.30;;;;;;5058704;28;20024;-78
2020/12/31 08:41:07;;;;;;;5.82;4.95;;;3.60;92.30;;;;;;5079647;28;20081;-78
2020/12/31 08:43:36;;;;;;;7.63;5.32;;;3.60;92.40;;;;;;5082800;28;20039;-78
2020/12/31 08:46:04;;;;;;;5.15;4.22;;;3.60;92.40;;;;;;5088203;28;20028;-80
2020/12/31 08:48:31;;;;;;;5.35;4.40;;;3.60;92.40;;;;;;5097079;28;20089;-80
2020/12/31 08:51:10;;;;;;;5.05;4.30;;;3.70;92.40;;;;;;5078597;28;20065;-82
2020/12/31 08:53:48;;;;;;;;;;;3.70;92.40;;;;;;5064180;28;20032;-82
2020/12/31 08:56:14;;;;;;;5.50;4.18;;;3.70;92.40;;;;;;5095514;28;19915;-78
2020/12/31 08:58:40;;;;;;;7.28;5.97;;;3.70;92.40;;;;;;5057686;28;20055;-78
2020/12/31 09:01:05;;;;;;;9.60;6.00;;;3.70;92.40;;;;;;5106497;28;20101;-78
2020/12/31 09:03:31;;;;;;;10.52;6.45;;;3.80;92.40;;;;;;5077522;28;20061;-78
2020/12/31 09:05:58;;;;;;;10.10;7.40;;;3.70;92.40;;;;;;5057437;28;20060;-78
2020/12/31 09:08:25;;;;;;;7.70;6.38;;;3.70;92.40;;;;;;5076127;28;20033;-78
2020/12/31 09:11:06;;;;;;;8.75;6.63;;;3.80;92.40;;;;;;5062056;28;20508;-78
2020/12/31 09:13:36;;;;;;;9.65;6.20;;;3.80;92.50;;;;;;5076136;28;20039;-78
2020/12/31 09:16:13;;;;;;;7.40;6.00;;;3.80;92.40;;;;;;5077019;28;20032;-78
2020/12/31 09:18:40;;;;;;;10.23;7.15;;;3.80;92.40;;;;;;5078037;28;20028;-78
2020/12/31 09:21:06;;;;;;;8.60;6.72;;;3.80;92.40;;;;;;5095935;28;20031;-78
2020/12/31 09:23:32;;;;;;;10.23;7.90;;;3.80;92.40;;;;;;5078063;28;20031;-78
2020/12/31 09:25:58;;;;;;;8.32;6.25;;;3.80;92.40;;;;;;5061242;28;20385;-78
2020/12/31 09:28:27;;;;;;;8.90;6.93;;;3.80;92.40;;;;;;5061215;28;20122;-78
2020/12/31 09:30:53;;;;;;;;;;;3.80;92.40;;;;;;5077877;28;20024;-78
2020/12/31 09:33:21;;;;;;;12.27;8.93;;;3.80;92.40;;;;;;5095749;28;19912;-77
2020/12/31 09:35:47;;;;;;;13.20;11.30;;;3.80;92.50;;;;;;5095473;28;20177;-78
2020/12/31 09:38:14;;;;;;;13.23;10.65;;;3.90;92.60;;;;;;5077403;28;20028;-79
2020/12/31 09:40:40;;;;;;;15.13;12.48;;;4.00;92.50;;;;;;5077272;28;20032;-79
2020/12/31 09:43:06;;;;;;;13.15;10.15;;;4.00;92.50;;;;;;5077279;28;20115;-79
2020/12/31 09:45:32;;;;;;;17.73;11.80;;;4.00;92.50;;;;;;5056836;28;20029;-80
2020/12/31 09:48:02;;;;;;;11.25;9.18;;;4.00;92.50;;;;;;5057574;28;20047;-80
2020/12/31 09:50:28;;;;;;;16.98;11.85;;;4.00;92.50;;;;;;5075309;28;20505;-80
2020/12/31 09:52:55;;;;;;;19.08;12.38;;;4.00;92.50;;;;;;5096203;28;20622;-79
2020/12/31 09:55:21;;;;;;;15.35;10.40;;;4.00;92.50;;;;;;5060893;28;20039;-80
2020/12/31 09:57:46;;;;;;;13.63;8.68;;;4.10;92.60;;;;;;5095450;28;20028;-81
2020/12/31 10:00:12;;;;;;;13.98;9.32;;;4.10;92.50;;;;;;5043978;28;20512;-80
2020/12/31 10:02:38;;;;;;;9.90;7.88;;;4.10;92.50;;;;;;5111139;28;20480;-81
2020/12/31 10:05:04;;;;;;;10.68;8.15;;;4.00;92.40;;;;;;5110956;28;20044;-81
2020/12/31 10:07:30;;;;;;;9.38;7.82;;;4.00;92.50;;;;;;5094156;28;20032;-82
2020/12/31 10:09:56;;;;;;;9.80;7.75;;;4.10;92.60;;;;;;5111056;28;20050;-83
2020/12/31 10:12:21;;;;;;;10.57;7.72;;;4.10;92.60;;;;;;5111006;28;20024;-82
2020/12/31 10:14:48;;;;;;;10.50;7.85;;;4.20;92.60;;;;;;5110582;28;20058;-81
2020/12/31 10:17:13;;;;;;;8.18;6.53;;;4.20;92.50;;;;;;5110839;28;20028;-82
2020/12/31 10:19:39;;;;;;;11.52;7.63;;;4.20;92.80;;;;;;5095381;28;20028;-82
2020/12/31 10:22:05;;;;;;;7.70;6.55;;;4.20;92.50;;;;;;5127994;27;20028;-82
2020/12/31 10:24:31;;;;;;;9.73;7.25;;;4.10;92.50;;;;;;5076811;28;20023;-81
2020/12/31 10:26:57;;;;;;;10.38;8.00;;;4.20;92.50;;;;;;5076801;28;20109;-82
2020/12/31 10:29:26;;;;;;;9.85;8.48;;;4.10;92.50;;;;;;5060449;28;20052;-82
2020/12/31 10:31:55;;;;;;;11.00;7.97;;;4.20;92.60;;;;;;5076150;28;20077;-82
2020/12/31 10:34:22;;;;;;;9.68;8.27;;;4.10;92.60;;;;;;5076728;28;20032;-81
2020/12/31 10:36:55;;;;;;;13.50;10.80;;;4.10;92.60;;;;;;5060173;28;20027;-81
2020/12/31 10:39:22;;;;;;;16.55;11.70;;;4.20;92.60;;;;;;5060370;28;20028;-81
2020/12/31 10:41:49;;;;;;;14.75;10.95;;;4.20;92.60;;;;;;5076744;28;20051;-81
2020/12/31 10:44:18;;;;;;;15.45;11.35;;;4.20;92.60;;;;;;5060025;28;20039;-82
2020/12/31 10:46:44;;;;;;;12.57;10.18;;;4.30;92.70;;;;;;5076491;28;20162;-81
2020/12/31 10:49:10;;;;;;;11.52;9.02;;;4.40;92.70;;;;;;5094535;28;20384;-81
2020/12/31 10:51:40;;;;;;;10.10;8.68;;;4.40;92.60;;;;;;5059748;28;20028;-81
2020/12/31 10:54:07;;;;;;;11.32;9.13;;;4.40;92.60;;;;;;5059823;28;20032;-82
2020/12/31 10:56:34;;;;;;;10.55;8.60;;;4.50;92.50;;;;;;5076382;28;20034;-82
2020/12/31 10:58:59;;;;;;;11.32;9.30;;;4.50;92.40;;;;;;5059546;28;20028;-82
2020/12/31 11:01:25;;;;;;;13.75;9.43;;;4.50;92.40;;;;;;5076190;28;20034;-82
2020/12/31 11:03:51;;;;;;;14.20;10.77;;;4.50;92.50;;;;;;5059620;28;20028;-83
2020/12/31 11:06:25;;;;;;;12.15;8.57;;;4.40;92.50;;;;;;5059855;28;20028;-83
2020/12/31 11:08:52;;;;;;;11.82;9.20;;;4.40;92.60;;;;;;5094557;28;20020;-83
2020/12/31 11:11:20;;;;;;;12.77;10.27;;;4.50;92.60;;;;;;5043161;28;20024;-83
2020/12/31 11:13:46;;;;;;;10.23;8.35;;;4.50;92.60;;;;;;5076310;28;20016;-85
2020/12/31 11:16:12;;;;;;;11.15;8.52;;;4.60;92.50;;;;;;5072796;28;20047;-86
2020/12/31 11:18:39;;;;;;;12.57;9.43;;;4.60;92.50;;;;;;5056396;28;20028;-85
2020/12/31 11:21:05;;;;;;;12.88;8.55;;;4.60;92.50;;;;;;5072650;28;20085;-84
2020/12/31 11:23:30;;;;;;;13.30;10.38;;;4.70;92.50;;;;;;5072865;28;20435;-85
2020/12/31 11:25:56;;;;;;;12.90;10.00;;;4.70;92.40;;;;;;5055911;28;20028;-86
2020/12/31 11:28:21;;;;;;;15.18;10.40;;;4.70;92.40;;;;;;5039627;28;20028;-85
2020/12/31 11:30:47;;;;;;;13.98;10.32;;;4.70;92.40;;;;;;5039375;28;20032;-85
2020/12/31 11:33:13;;;;;;;11.05;8.50;;;4.70;92.40;;;;;;5056067;28;20119;-84
2020/12/31 11:35:38;;;;;;;10.30;8.68;;;4.80;92.40;;;;;;5072768;28;20032;-81
2020/12/31 11:38:04;;;;;;;11.50;8.88;;;4.80;92.40;;;;;;5051523;28;20555;-80
2020/12/31 11:40:29;;;;;;;25.35;14.18;;;4.80;92.50;;;;;;5053934;28;20048;-81
2020/12/31 11:42:55;;;;;;;34.30;18.27;;;4.90;92.50;;;;;;5071569;28;20358;-81
2020/12/31 11:45:21;;;;;;;23.63;14.20;;;5.00;92.50;;;;;;5071644;28;20036;-80
2020/12/31 11:47:46;;;;;;;21.13;13.63;;;5.00;92.30;;;;;;5071470;28;20421;-80
2020/12/31 11:50:12;;;;;;;17.05;11.90;;;5.10;92.30;;;;;;5051333;28;20047;-80
2020/12/31 11:52:38;;;;;;;13.35;10.23;;;5.20;92.20;;;;;;5068577;28;20671;-80
2020/12/31 11:55:04;;;;;;;13.35;10.45;;;5.20;92.10;;;;;;5072498;28;20048;-80
2020/12/31 11:57:29;;;;;;;12.05;9.13;;;5.30;92.00;;;;;;5051511;28;20087;-80
2020/12/31 11:59:55;;;;;;;11.73;8.80;;;5.30;92.00;;;;;;5083703;28;20095;-80
2020/12/31 12:02:20;;;;;;;14.15;10.48;;;5.30;92.00;;;;;;5071336;28;20028;-80
2020/12/31 12:04:46;;;;;;;14.43;11.00;;;5.30;91.80;;;;;;5071245;28;20128;-83
2020/12/31 12:07:12;;;;;;;10.75;9.25;;;5.30;91.70;;;;;;5054812;28;20040;-80
2020/12/31 12:09:37;;;;;;;9.85;8.82;;;5.40;91.80;;;;;;5071707;28;20467;-80
2020/12/31 12:12:07;;;;;;;12.18;10.10;;;5.40;91.70;;;;;;5071960;28;20485;-80
2020/12/31 12:14:32;;;;;;;13.05;10.30;;;5.40;91.70;;;;;;5071448;28;20093;-80
2020/12/31 12:16:59;;;;;;;14.80;11.52;;;5.40;91.70;;;;;;5071642;28;20021;-80
2020/12/31 12:19:25;;;;;;;14.07;11.27;;;5.40;91.60;;;;;;5071833;28;20021;-80
2020/12/31 12:21:50;;;;;;;17.60;11.82;;;5.40;91.50;;;;;;5071907;28;20024;-81
2020/12/31 12:24:16;;;;;;;13.80;11.45;;;5.50;91.50;;;;;;5073096;28;20028;-80
2020/12/31 12:26:42;;;;;;;17.05;12.48;;;5.50;91.50;;;;;;5071672;28;20037;-81
2020/12/31 12:29:08;;;;;;;14.38;11.30;;;5.40;91.50;;;;;;5071779;28;20024;-80
2020/12/31 12:31:35;;;;;;;12.50;10.23;;;5.50;91.60;;;;;;5072617;28;20025;-82
2020/12/31 12:34:02;;;;;;;12.20;10.10;;;5.40;91.60;;;;;;5071440;28;20488;-81
2020/12/31 12:36:28;;;;;;;13.30;10.45;;;5.50;91.60;;;;;;5071651;28;20028;-80
2020/12/31 12:38:54;;;;;;;12.13;10.27;;;5.50;91.50;;;;;;5071807;28;20040;-82
2020/12/31 12:41:20;;;;;;;15.85;11.48;;;5.40;91.50;;;;;;5071532;28;20039;-82
2020/12/31 12:43:46;;;;;;;12.50;10.57;;;5.50;91.70;;;;;;5072234;28;20094;-82
2020/12/31 12:46:16;;;;;;;15.20;10.23;;;5.50;91.50;;;;;;5072287;28;20068;-82
2020/12/31 12:48:42;;;;;;;15.65;12.00;;;5.50;91.50;;;;;;5070608;28;20025;-82
2020/12/31 12:51:08;;;;;;;25.90;16.40;;;5.60;91.40;;;;;;5070857;28;20037;-78
2020/12/31 12:53:34;;;;;;;31.20;20.90;;;5.60;91.30;;;;;;5071126;28;20588;-78